Time;durP1;ratioP1;P1;durP2;ratioP2;P2;SDS_P1;SDS_P2;PMS_P1;PMS_P2;Temp;Humidity;BMP_temperature;BMP_pressure;BME280_temperature;BME280_humidity;BME280_pressure;Samples;Min_cycle;Max_cycle;Signal;HPM_P1;HPM_P2
2022/03/01 00:02:07;;;;;;;7.40;6.35;;;;;;;;;;5052995;28;20122;-63
2022/03/01 00:04:34;;;;;;;7.07;6.35;;;;;;;;;;5053018;28;20063;-64
2022/03/01 00:07:00;;;;;;;8.48;6.28;;;;;;;;;;5052854;28;20102;-64
2022/03/01 00:09:27;;;;;;;9.00;5.90;;;;;;;;;;5052433;28;20558;-64
2022/03/01 00:11:53;;;;;;;14.30;6.72;;;;;;;;;;5052730;28;20080;-63
2022/03/01 00:14:19;;;;;;;8.05;6.05;;;;;;;;;;5053038;28;20115;-64
2022/03/01 00:16:46;;;;;;;7.53;6.10;;;;;;;;;;5052978;28;20413;-64
2022/03/01 00:19:12;;;;;;;9.13;6.53;;;;;;;;;;5046832;28;20107;-64
2022/03/01 00:21:39;;;;;;;7.50;5.85;;;;;;;;;;5052501;28;20476;-64
2022/03/01 00:24:05;;;;;;;8.57;5.93;;;;;;;;;;5052525;28;20053;-64
2022/03/01 00:26:32;;;;;;;8.68;6.20;;;;;;;;;;5052672;28;20061;-64
2022/03/01 00:28:59;;;;;;;7.82;6.65;;;;;;;;;;5051201;28;20099;-64
2022/03/01 00:31:25;;;;;;;8.93;6.82;;;;;;;;;;5052361;28;20049;-64
2022/03/01 00:33:52;;;;;;;10.25;6.47;;;;;;;;;;5052245;28;20509;-64
2022/03/01 00:36:18;;;;;;;10.43;6.63;;;;;;;;;;5052334;28;20497;-64
2022/03/01 00:38:45;;;;;;;8.98;6.53;;;;;;;;;;5052550;28;20102;-64
2022/03/01 00:41:11;;;;;;;8.68;6.35;;;;;;;;;;5052563;28;20045;-64
2022/03/01 00:43:39;;;;;;;11.27;6.78;;;;;;;;;;5052538;28;20053;-64
2022/03/01 00:46:05;;;;;;;8.88;6.25;;;;;;;;;;5052162;28;20080;-64
2022/03/01 00:48:32;;;;;;;9.60;5.88;;;;;;;;;;5052163;28;20049;-63
2022/03/01 00:50:58;;;;;;;10.05;5.85;;;;;;;;;;5052123;28;20049;-64
2022/03/01 00:53:25;;;;;;;10.35;7.10;;;;;;;;;;5046794;28;20053;-64
2022/03/01 00:55:51;;;;;;;11.13;6.30;;;;;;;;;;5047224;28;20078;-64
2022/03/01 00:58:17;;;;;;;10.40;6.80;;;;;;;;;;5052284;28;20045;-64
2022/03/01 01:00:44;;;;;;;11.15;6.78;;;;;;;;;;5052010;28;20052;-64
2022/03/01 01:03:10;;;;;;;10.45;6.03;;;;;;;;;;5051612;28;20131;-64
2022/03/01 01:05:37;;;;;;;9.88;6.38;;;;;;;;;;5051869;28;20448;-64
2022/03/01 01:08:04;;;;;;;8.32;6.70;;;;;;;;;;5051991;28;20098;-64
2022/03/01 01:10:30;;;;;;;8.88;6.90;;;;;;;;;;5052007;28;20106;-64
2022/03/01 01:12:57;;;;;;;9.80;6.60;;;;;;;;;;5052042;28;20045;-63
2022/03/01 01:15:23;;;;;;;10.13;7.40;;;;;;;;;;5051928;28;20114;-64
2022/03/01 01:17:50;;;;;;;9.00;6.65;;;;;;;;;;5049283;28;20566;-64
2022/03/01 01:20:16;;;;;;;10.68;6.90;;;;;;;;;;5047932;28;20041;-63
2022/03/01 01:22:43;;;;;;;9.70;7.20;;;;;;;;;;5051107;28;20053;-64
2022/03/01 01:25:17;;;;;;;9.52;7.05;;;;;;;;;;5051860;28;20056;-64
2022/03/01 01:27:45;;;;;;;10.40;6.88;;;;;;;;;;5051580;28;20071;-63
2022/03/01 01:30:15;;;;;;;8.73;6.78;;;;;;;;;;5051795;28;20049;-64
2022/03/01 01:32:42;;;;;;;9.65;7.22;;;;;;;;;;5051730;28;20150;-64
2022/03/01 01:35:09;;;;;;;11.23;7.22;;;;;;;;;;5051510;28;20099;-64
2022/03/01 01:37:36;;;;;;;9.45;7.68;;;;;;;;;;5051453;28;20068;-64
2022/03/01 01:40:04;;;;;;;10.60;6.88;;;;;;;;;;5051452;28;20045;-63
2022/03/01 01:42:30;;;;;;;12.23;7.50;;;;;;;;;;5051452;28;20421;-64
2022/03/01 01:44:57;;;;;;;9.48;7.68;;;;;;;;;;5051413;28;20068;-64
2022/03/01 01:47:43;;;;;;;10.38;8.40;;;;;;;;;;5051620;28;20095;-64
2022/03/01 01:50:09;;;;;;;13.00;8.23;;;;;;;;;;5051453;28;20479;-63
2022/03/01 01:52:36;;;;;;;11.68;9.30;;;;;;;;;;5051300;28;20045;-63
2022/03/01 01:55:03;;;;;;;11.52;8.73;;;;;;;;;;5051670;28;20094;-64
2022/03/01 01:57:29;;;;;;;16.17;9.75;;;;;;;;;;5051512;28;20053;-64
2022/03/01 01:59:56;;;;;;;11.95;8.55;;;;;;;;;;5051483;28;20045;-63
2022/03/01 02:02:23;;;;;;;11.60;8.30;;;;;;;;;;5051155;28;20099;-64
2022/03/01 02:04:50;;;;;;;14.10;8.90;;;;;;;;;;5051141;28;20111;-63
2022/03/01 02:07:17;;;;;;;12.88;8.35;;;;;;;;;;5051188;28;20049;-64
2022/03/01 02:09:43;;;;;;;11.30;7.68;;;;;;;;;;5051390;28;20053;-63
2022/03/01 02:12:10;;;;;;;13.65;8.82;;;;;;;;;;5050882;28;20053;-63
2022/03/01 02:14:37;;;;;;;12.00;8.27;;;;;;;;;;5051329;28;20099;-63
2022/03/01 02:17:05;;;;;;;12.32;8.40;;;;;;;;;;5051019;28;20075;-63
2022/03/01 02:19:31;;;;;;;12.52;8.45;;;;;;;;;;5045136;28;20566;-64
2022/03/01 02:21:58;;;;;;;13.25;8.43;;;;;;;;;;5050893;28;20056;-64
2022/03/01 02:24:26;;;;;;;;;;;;;;;;;;5051766;28;20053;-64
2022/03/01 02:26:53;;;;;;;11.90;8.35;;;;;;;;;;5051128;28;19925;-64
2022/03/01 02:29:19;;;;;;;12.13;7.93;;;;;;;;;;5051007;28;20350;-64
2022/03/01 02:31:46;;;;;;;11.90;7.88;;;;;;;;;;5051003;28;20452;-64
2022/03/01 02:34:13;;;;;;;14.68;8.57;;;;;;;;;;5055015;28;20128;-64
2022/03/01 02:36:39;;;;;;;12.33;9.07;;;;;;;;;;5054630;28;20645;-64
2022/03/01 02:39:06;;;;;;;12.98;9.15;;;;;;;;;;5048136;28;20456;-64
2022/03/01 02:41:36;;;;;;;12.35;9.15;;;;;;;;;;5054880;28;20052;-64
2022/03/01 02:44:02;;;;;;;13.15;10.02;;;;;;;;;;5054469;28;20110;-64
2022/03/01 02:46:29;;;;;;;12.82;9.77;;;;;;;;;;5054577;28;20076;-64
2022/03/01 02:48:55;;;;;;;14.45;9.45;;;;;;;;;;5054574;28;20114;-64
2022/03/01 02:51:22;;;;;;;13.32;8.52;;;;;;;;;;5054505;28;20053;-65
2022/03/01 02:53:48;;;;;;;13.88;8.77;;;;;;;;;;5054621;28;20045;-64
2022/03/01 02:56:15;;;;;;;12.88;8.90;;;;;;;;;;5054461;28;20091;-64
2022/03/01 02:58:41;;;;;;;15.07;9.05;;;;;;;;;;5054370;28;20094;-64
2022/03/01 03:01:08;;;;;;;13.27;8.70;;;;;;;;;;5054514;28;20114;-65
2022/03/01 03:03:34;;;;;;;13.57;8.98;;;;;;;;;;5054323;28;20102;-65
2022/03/01 03:06:01;;;;;;;15.45;9.35;;;;;;;;;;5054396;28;20052;-65
2022/03/01 03:08:27;;;;;;;14.77;8.90;;;;;;;;;;5054501;28;20146;-65
2022/03/01 03:10:54;;;;;;;16.58;9.80;;;;;;;;;;5054283;28;20049;-65
2022/03/01 03:13:20;;;;;;;12.75;9.18;;;;;;;;;;5053930;28;20057;-65
2022/03/01 03:15:47;;;;;;;17.48;9.73;;;;;;;;;;5053820;28;20087;-65
2022/03/01 03:18:14;;;;;;;15.65;9.80;;;;;;;;;;5048333;28;20090;-64
2022/03/01 03:20:40;;;;;;;16.88;9.70;;;;;;;;;;5049989;28;20500;-65
2022/03/01 03:23:07;;;;;;;14.75;9.07;;;;;;;;;;5054102;28;20473;-64
2022/03/01 03:25:34;;;;;;;17.13;10.20;;;;;;;;;;5052405;28;20057;-65
2022/03/01 03:28:00;;;;;;;19.20;10.40;;;;;;;;;;5047209;28;20053;-65
2022/03/01 03:30:27;;;;;;;20.02;10.05;;;;;;;;;;5046625;28;20057;-65
2022/03/01 03:32:53;;;;;;;19.42;10.80;;;;;;;;;;5053440;28;20049;-65
2022/03/01 03:35:20;;;;;;;20.17;10.77;;;;;;;;;;5053843;28;20048;-65
2022/03/01 03:37:48;;;;;;;17.15;10.10;;;;;;;;;;5053680;28;20041;-65
2022/03/01 03:40:15;;;;;;;18.55;10.65;;;;;;;;;;5053749;28;20107;-65
2022/03/01 03:42:44;;;;;;;21.20;10.43;;;;;;;;;;5053664;28;20048;-65
2022/03/01 03:45:11;;;;;;;16.20;10.02;;;;;;;;;;5052606;28;20056;-65
2022/03/01 03:47:38;;;;;;;18.10;10.20;;;;;;;;;;5053563;28;20049;-65
2022/03/01 03:50:05;;;;;;;13.67;10.50;;;;;;;;;;5053203;28;20084;-65
2022/03/01 03:52:32;;;;;;;18.20;10.37;;;;;;;;;;5053474;28;20045;-65
2022/03/01 03:54:58;;;;;;;15.35;9.77;;;;;;;;;;5053323;28;20278;-65
2022/03/01 03:57:25;;;;;;;20.38;10.45;;;;;;;;;;5053176;28;20489;-65
2022/03/01 03:59:51;;;;;;;17.77;10.00;;;;;;;;;;5053327;28;20049;-65
2022/03/01 04:02:18;;;;;;;19.15;10.48;;;;;;;;;;5053249;28;20053;-65
2022/03/01 04:04:44;;;;;;;19.33;10.07;;;;;;;;;;5053232;28;20049;-65
2022/03/01 04:07:11;;;;;;;17.83;9.18;;;;;;;;;;5053233;28;20459;-65
2022/03/01 04:09:37;;;;;;;19.40;9.40;;;;;;;;;;5053181;28;20145;-65
2022/03/01 04:12:04;;;;;;;18.50;9.18;;;;;;;;;;5052754;28;20110;-65
2022/03/01 04:14:30;;;;;;;19.98;9.05;;;;;;;;;;5052773;28;20061;-65
2022/03/01 04:17:00;;;;;;;18.67;9.02;;;;;;;;;;5052634;28;20120;-65
2022/03/01 04:19:26;;;;;;;17.02;9.27;;;;;;;;;;5046506;28;20049;-65
2022/03/01 04:21:53;;;;;;;16.45;9.45;;;;;;;;;;5052460;28;20057;-64
2022/03/01 04:24:19;;;;;;;16.92;9.25;;;;;;;;;;5052617;28;20057;-65
2022/03/01 04:26:46;;;;;;;19.45;8.35;;;;;;;;;;5052580;28;20057;-65
2022/03/01 04:29:13;;;;;;;19.25;8.65;;;;;;;;;;5052374;28;20106;-65
2022/03/01 04:31:39;;;;;;;17.43;8.43;;;;;;;;;;5052379;28;20048;-65
2022/03/01 04:34:06;;;;;;;21.33;9.48;;;;;;;;;;5052597;28;20099;-65
2022/03/01 04:36:32;;;;;;;17.48;8.98;;;;;;;;;;5052674;28;20082;-65
2022/03/01 04:38:59;;;;;;;19.50;8.38;;;;;;;;;;5052421;28;20095;-65
2022/03/01 04:41:25;;;;;;;21.35;8.27;;;;;;;;;;5052587;28;20048;-65
2022/03/01 04:43:52;;;;;;;20.20;8.40;;;;;;;;;;5052137;28;20099;-65
2022/03/01 04:46:18;;;;;;;17.08;7.97;;;;;;;;;;5052401;28;20102;-65
2022/03/01 04:48:45;;;;;;;14.52;7.47;;;;;;;;;;5052464;28;20060;-65
2022/03/01 04:51:12;;;;;;;21.17;8.52;;;;;;;;;;5052058;28;20541;-65
2022/03/01 04:53:39;;;;;;;17.98;8.32;;;;;;;;;;5051940;28;20045;-65
2022/03/01 04:56:05;;;;;;;17.98;7.40;;;;;;;;;;5052053;28;20061;-65
2022/03/01 04:58:31;;;;;;;18.75;7.68;;;;;;;;;;5052193;28;20041;-66
2022/03/01 05:01:00;;;;;;;22.77;7.82;;;;;;;;;;5052302;28;20045;-65
2022/03/01 05:03:30;;;;;;;20.42;7.20;;;;;;;;;;5052107;28;20102;-65
2022/03/01 05:05:56;;;;;;;17.08;6.60;;;;;;;;;;5052139;28;20158;-65
2022/03/01 05:08:23;;;;;;;19.40;7.20;;;;;;;;;;5051768;28;20083;-65
2022/03/01 05:10:49;;;;;;;17.85;6.78;;;;;;;;;;5051922;28;20094;-65
2022/03/01 05:13:16;;;;;;;17.77;7.38;;;;;;;;;;5051617;28;20547;-65
2022/03/01 05:15:42;;;;;;;14.35;6.68;;;;;;;;;;5051770;28;20045;-65
2022/03/01 05:18:08;;;;;;;16.58;6.55;;;;;;;;;;5047039;28;20523;-65
2022/03/01 05:20:35;;;;;;;18.33;7.97;;;;;;;;;;5050371;28;20045;-65
2022/03/01 05:23:01;;;;;;;16.98;7.65;;;;;;;;;;5052006;28;20157;-65
2022/03/01 05:25:28;;;;;;;21.73;7.45;;;;;;;;;;5051564;28;20612;-65
2022/03/01 05:27:54;;;;;;;20.83;7.18;;;;;;;;;;5051602;28;20048;-65
2022/03/01 05:30:21;;;;;;;20.15;7.05;;;;;;;;;;5051686;28;20057;-65
2022/03/01 05:32:50;;;;;;;16.73;7.22;;;;;;;;;;5051712;28;20049;-65
2022/03/01 05:35:18;;;;;;;17.80;7.28;;;;;;;;;;5051830;28;20044;-65
2022/03/01 05:37:47;;;;;;;17.67;6.97;;;;;;;;;;5051713;28;20048;-65
2022/03/01 05:40:13;;;;;;;17.33;7.15;;;;;;;;;;5051691;28;20451;-65
2022/03/01 05:42:41;;;;;;;15.05;6.97;;;;;;;;;;5051718;28;20051;-65
2022/03/01 05:45:07;;;;;;;16.93;7.33;;;;;;;;;;5051419;28;20052;-65
2022/03/01 05:47:34;;;;;;;16.30;7.20;;;;;;;;;;5051369;28;20053;-65
2022/03/01 05:50:00;;;;;;;14.98;6.35;;;;;;;;;;5051553;28;20049;-65
2022/03/01 05:52:27;;;;;;;18.20;6.75;;;;;;;;;;5051580;28;20045;-65
2022/03/01 05:54:53;;;;;;;19.73;7.53;;;;;;;;;;5051450;28;20049;-66
2022/03/01 05:57:20;;;;;;;20.25;7.45;;;;;;;;;;5051668;28;20440;-65
2022/03/01 05:59:46;;;;;;;14.07;6.97;;;;;;;;;;5051224;28;20048;-65
2022/03/01 06:02:12;;;;;;;16.08;7.40;;;;;;;;;;5051424;28;20045;-66
2022/03/01 06:04:39;;;;;;;17.50;6.78;;;;;;;;;;5051633;28;20475;-65
2022/03/01 06:07:05;;;;;;;15.15;6.97;;;;;;;;;;5051878;28;20102;-65
2022/03/01 06:09:32;;;;;;;17.55;7.55;;;;;;;;;;5055132;28;20496;-66
2022/03/01 06:11:58;;;;;;;20.02;7.38;;;;;;;;;;5055327;28;20095;-65
2022/03/01 06:14:25;;;;;;;17.52;6.93;;;;;;;;;;5055261;28;20041;-65
2022/03/01 06:16:51;;;;;;;17.05;7.38;;;;;;;;;;5055058;28;20102;-65
2022/03/01 06:19:18;;;;;;;21.20;8.57;;;;;;;;;;5048646;28;20459;-66
2022/03/01 06:21:44;;;;;;;19.85;7.38;;;;;;;;;;5054679;28;20497;-65
2022/03/01 06:24:13;;;;;;;13.32;7.00;;;;;;;;;;5055228;28;20158;-65
2022/03/01 06:26:40;;;;;;;19.23;7.30;;;;;;;;;;5055508;28;20053;-65
2022/03/01 06:29:08;;;;;;;17.25;7.60;;;;;;;;;;5055074;28;20068;-65
2022/03/01 06:31:34;;;;;;;17.23;7.22;;;;;;;;;;5055034;28;20484;-65
2022/03/01 06:34:01;;;;;;;12.52;7.55;;;;;;;;;;5054953;28;20314;-65
2022/03/01 06:36:27;;;;;;;13.98;7.57;;;;;;;;;;5054952;28;20463;-65
2022/03/01 06:38:54;;;;;;;13.93;8.20;;;;;;;;;;5054827;28;20049;-66
2022/03/01 06:41:20;;;;;;;15.68;7.47;;;;;;;;;;5054758;28;20056;-65
2022/03/01 06:43:47;;;;;;;15.27;8.13;;;;;;;;;;5054504;28;20107;-65
2022/03/01 06:46:13;;;;;;;16.60;8.07;;;;;;;;;;5040328;28;20084;-66
2022/03/01 06:48:42;;;;;;;16.38;7.93;;;;;;;;;;5054490;28;20106;-65
2022/03/01 06:51:09;;;;;;;13.55;7.95;;;;;;;;;;5054358;28;20520;-66
2022/03/01 06:53:36;;;;;;;14.13;8.05;;;;;;;;;;5054520;28;20037;-65
2022/03/01 06:56:02;;;;;;;11.93;7.78;;;;;;;;;;5053243;28;20049;-66
2022/03/01 06:58:29;;;;;;;14.32;7.75;;;;;;;;;;5054514;28;20103;-65
2022/03/01 07:00:56;;;;;;;15.35;8.50;;;;;;;;;;5054230;28;20053;-65
2022/03/01 07:03:23;;;;;;;15.48;8.18;;;;;;;;;;5054450;28;20076;-66
2022/03/01 07:05:50;;;;;;;18.95;9.98;;;;;;;;;;5054114;28;20058;-65
2022/03/01 07:08:20;;;;;;;18.27;9.05;;;;;;;;;;5048863;28;20049;-65
2022/03/01 07:10:47;;;;;;;16.27;8.73;;;;;;;;;;5042701;28;20052;-65
2022/03/01 07:13:14;;;;;;;18.67;10.35;;;;;;;;;;5053964;28;20440;-65
2022/03/01 07:15:40;;;;;;;14.52;8.27;;;;;;;;;;5053915;28;20040;-65
2022/03/01 07:18:07;;;;;;;13.95;8.48;;;;;;;;;;5049031;28;20049;-65
2022/03/01 07:20:34;;;;;;;17.08;9.23;;;;;;;;;;5052130;28;20041;-65
2022/03/01 07:23:01;;;;;;;14.30;8.23;;;;;;;;;;5053895;28;20584;-65
2022/03/01 07:25:28;;;;;;;18.63;9.18;;;;;;;;;;5053722;28;20485;-65
2022/03/01 07:27:55;;;;;;;12.25;7.40;;;;;;;;;;5044130;28;20087;-65
2022/03/01 07:30:24;;;;;;;15.90;7.93;;;;;;;;;;5047368;28;20498;-66
2022/03/01 07:32:52;;;;;;;14.60;8.13;;;;;;;;;;5045291;28;20042;-66
2022/03/01 07:35:20;;;;;;;14.57;8.65;;;;;;;;;;5038366;28;20048;-66
2022/03/01 07:37:46;;;;;;;14.93;8.00;;;;;;;;;;5052484;28;20053;-65
2022/03/01 07:40:16;;;;;;;15.57;7.88;;;;;;;;;;5033522;28;20332;-66
2022/03/01 07:42:46;;;;;;;16.90;8.35;;;;;;;;;;5042380;28;20045;-66
2022/03/01 07:45:12;;;;;;;17.10;8.63;;;;;;;;;;5032369;28;20095;-65
2022/03/01 07:47:39;;;;;;;15.70;8.20;;;;;;;;;;5042932;28;20112;-66
2022/03/01 07:50:07;;;;;;;11.60;7.82;;;;;;;;;;5031464;28;20064;-65
2022/03/01 07:52:33;;;;;;;14.80;7.95;;;;;;;;;;5032823;28;20050;-66
2022/03/01 07:55:00;;;;;;;13.65;8.15;;;;;;;;;;5028695;28;20092;-65
2022/03/01 07:57:26;;;;;;;16.45;8.10;;;;;;;;;;5031108;28;20092;-65
2022/03/01 07:59:52;;;;;;;10.85;7.88;;;;;;;;;;5031613;28;20107;-65
2022/03/01 08:02:19;;;;;;;14.65;7.57;;;;;;;;;;5044308;28;20053;-65
2022/03/01 08:04:46;;;;;;;13.88;7.78;;;;;;;;;;5032966;28;20103;-65
2022/03/01 08:07:33;;;;;;;12.27;7.35;;;;;;;;;;5035574;28;20077;-65
2022/03/01 08:10:00;;;;;;;15.38;8.65;;;;;;;;;;5032535;28;21187;-66
2022/03/01 08:12:26;;;;;;;13.38;7.57;;;;;;;;;;5032763;28;20103;-65
2022/03/01 08:14:53;;;;;;;12.65;7.88;;;;;;;;;;5042472;28;20041;-66
2022/03/01 08:17:20;;;;;;;15.10;7.95;;;;;;;;;;5039412;28;20631;-66
2022/03/01 08:19:47;;;;;;;13.70;7.40;;;;;;;;;;5040678;28;20421;-66
2022/03/01 08:22:13;;;;;;;12.15;6.88;;;;;;;;;;5031951;28;20135;-66
2022/03/01 08:24:40;;;;;;;12.38;8.38;;;;;;;;;;5032486;28;20045;-66
2022/03/01 08:27:06;;;;;;;13.93;7.85;;;;;;;;;;5033734;28;20057;-66
2022/03/01 08:29:33;;;;;;;12.05;7.07;;;;;;;;;;5052486;28;20079;-66
2022/03/01 08:32:00;;;;;;;16.90;7.75;;;;;;;;;;5024757;28;20118;-66
2022/03/01 08:34:27;;;;;;;14.20;7.90;;;;;;;;;;5050866;28;20048;-65
2022/03/01 08:36:53;;;;;;;11.57;7.47;;;;;;;;;;5032027;28;20402;-66
2022/03/01 08:39:19;;;;;;;10.57;7.05;;;;;;;;;;5040769;28;20435;-66
2022/03/01 08:41:46;;;;;;;11.93;7.35;;;;;;;;;;5032085;28;20501;-66
2022/03/01 08:44:12;;;;;;;14.25;7.15;;;;;;;;;;5046256;28;20056;-66
2022/03/01 08:46:39;;;;;;;11.73;7.60;;;;;;;;;;5050489;28;20355;-66
2022/03/01 08:49:07;;;;;;;11.80;7.28;;;;;;;;;;5051281;28;20717;-66
2022/03/01 08:51:34;;;;;;;;;;;;;;;;;;5038669;28;20053;-66
2022/03/01 08:54:02;;;;;;;11.43;6.90;;;;;;;;;;5051927;28;19982;-66
2022/03/01 08:56:28;;;;;;;12.18;7.18;;;;;;;;;;5052293;28;20103;-66
2022/03/01 08:58:55;;;;;;;15.07;7.80;;;;;;;;;;5052279;28;20048;-66
2022/03/01 09:01:21;;;;;;;15.02;7.15;;;;;;;;;;5051985;28;20053;-66
2022/03/01 09:03:48;;;;;;;12.25;7.72;;;;;;;;;;5051959;28;20055;-65
2022/03/01 09:06:14;;;;;;;13.90;7.35;;;;;;;;;;5052197;28;20049;-66
2022/03/01 09:08:41;;;;;;;12.75;6.68;;;;;;;;;;5051828;28;20064;-65
2022/03/01 09:11:08;;;;;;;11.13;6.47;;;;;;;;;;5051829;28;20489;-65
2022/03/01 09:13:35;;;;;;;12.33;7.40;;;;;;;;;;5051712;28;20075;-66
2022/03/01 09:16:01;;;;;;;11.05;6.75;;;;;;;;;;5051741;28;20057;-66
2022/03/01 09:18:28;;;;;;;10.05;6.20;;;;;;;;;;5045284;28;20489;-66
2022/03/01 09:20:54;;;;;;;13.30;6.63;;;;;;;;;;5051329;28;20049;-66
2022/03/01 09:23:21;;;;;;;8.80;6.32;;;;;;;;;;5051745;28;20103;-67
2022/03/01 09:25:47;;;;;;;11.90;6.13;;;;;;;;;;5039288;28;20100;-67
2022/03/01 09:28:14;;;;;;;10.55;5.97;;;;;;;;;;5032745;28;20053;-66
2022/03/01 09:30:40;;;;;;;11.07;5.85;;;;;;;;;;5045463;28;20045;-66
2022/03/01 09:33:07;;;;;;;8.50;5.55;;;;;;;;;;5044771;28;20052;-65
2022/03/01 09:35:33;;;;;;;10.85;5.78;;;;;;;;;;5037098;28;20049;-65
2022/03/01 09:37:59;;;;;;;8.68;5.60;;;;;;;;;;5034318;28;20050;-66
2022/03/01 09:40:26;;;;;;;10.80;5.60;;;;;;;;;;5049221;28;20057;-66
2022/03/01 09:42:53;;;;;;;8.80;5.25;;;;;;;;;;5050987;28;20091;-66
2022/03/01 09:45:20;;;;;;;8.63;5.90;;;;;;;;;;5051656;28;20110;-65
2022/03/01 09:47:47;;;;;;;11.20;5.47;;;;;;;;;;5046435;28;20041;-66
2022/03/01 09:50:14;;;;;;;8.43;4.88;;;;;;;;;;5033500;28;20053;-65
2022/03/01 09:52:41;;;;;;;10.30;6.15;;;;;;;;;;5051386;28;20493;-66
2022/03/01 09:55:08;;;;;;;11.47;5.70;;;;;;;;;;5042058;28;20045;-66
2022/03/01 09:57:35;;;;;;;9.55;4.88;;;;;;;;;;5030742;28;20061;-66
2022/03/01 10:00:03;;;;;;;9.80;5.13;;;;;;;;;;5032395;28;20053;-66
2022/03/01 10:02:36;;;;;;;8.00;4.57;;;;;;;;;;5044411;28;20500;-65
2022/03/01 10:05:04;;;;;;;7.93;4.90;;;;;;;;;;5051452;28;20056;-65
2022/03/01 10:07:31;;;;;;;10.15;5.57;;;;;;;;;;5051507;28;20068;-65
2022/03/01 10:10:05;;;;;;;12.27;5.90;;;;;;;;;;5051364;28;20053;-65
2022/03/01 10:12:32;;;;;;;8.30;5.00;;;;;;;;;;5051273;28;20057;-65
2022/03/01 10:15:03;;;;;;;9.80;4.80;;;;;;;;;;5051272;28;20044;-65
2022/03/01 10:17:36;;;;;;;10.32;5.55;;;;;;;;;;5039714;28;20119;-65
2022/03/01 10:20:07;;;;;;;7.82;4.65;;;;;;;;;;5046857;28;20053;-66
2022/03/01 10:22:36;;;;;;;8.50;4.38;;;;;;;;;;5050948;28;20053;-65
2022/03/01 10:25:03;;;;;;;9.40;4.88;;;;;;;;;;5051196;28;20107;-65
2022/03/01 10:27:30;;;;;;;10.60;4.78;;;;;;;;;;5051253;28;20079;-65
2022/03/01 10:29:57;;;;;;;7.20;4.22;;;;;;;;;;5050812;28;20497;-65
2022/03/01 10:32:24;;;;;;;6.55;3.70;;;;;;;;;;5050948;28;20098;-65
2022/03/01 10:34:58;;;;;;;6.43;3.90;;;;;;;;;;5051169;28;20473;-65
2022/03/01 10:37:26;;;;;;;10.23;4.35;;;;;;;;;;5051224;28;20049;-65
2022/03/01 10:40:08;;;;;;;8.60;3.95;;;;;;;;;;5050857;28;20106;-65
2022/03/01 10:42:34;;;;;;;7.53;4.10;;;;;;;;;;5051132;28;20103;-65
2022/03/01 10:45:01;;;;;;;9.18;4.15;;;;;;;;;;5050865;28;20103;-65
2022/03/01 10:47:28;;;;;;;6.97;3.50;;;;;;;;;;5050128;28;20058;-65
2022/03/01 10:50:01;;;;;;;10.13;4.38;;;;;;;;;;5050426;28;20114;-65
2022/03/01 10:52:32;;;;;;;11.35;4.28;;;;;;;;;;5046805;28;20123;-66
2022/03/01 10:54:59;;;;;;;9.00;4.28;;;;;;;;;;5047449;28;20103;-65
2022/03/01 10:57:25;;;;;;;8.13;4.35;;;;;;;;;;5054267;28;20041;-65
2022/03/01 10:59:52;;;;;;;7.72;4.50;;;;;;;;;;5054592;28;20099;-66
2022/03/01 11:02:19;;;;;;;9.02;4.60;;;;;;;;;;5047806;28;20107;-65
2022/03/01 11:04:48;;;;;;;9.13;3.90;;;;;;;;;;5052851;28;20519;-65
2022/03/01 11:07:15;;;;;;;7.38;4.40;;;;;;;;;;5054078;28;20057;-65
2022/03/01 11:09:43;;;;;;;8.77;4.38;;;;;;;;;;5054330;28;20053;-66
2022/03/01 11:12:10;;;;;;;9.90;4.47;;;;;;;;;;5053045;28;20049;-65
2022/03/01 11:14:58;;;;;;;8.82;4.57;;;;;;;;;;5043909;28;20123;-65
2022/03/01 11:17:40;;;;;;;7.18;3.97;;;;;;;;;;5047242;28;20053;-66
2022/03/01 11:20:10;;;;;;;6.32;3.85;;;;;;;;;;5041068;28;20045;-66
2022/03/01 11:22:41;;;;;;;9.27;4.30;;;;;;;;;;5053634;28;20501;-66
2022/03/01 11:25:28;;;;;;;6.28;3.45;;;;;;;;;;5039391;28;20057;-66
2022/03/01 11:28:02;;;;;;;7.60;3.33;;;;;;;;;;5053905;28;20057;-66
2022/03/01 11:30:34;;;;;;;4.50;3.15;;;;;;;;;;5053962;28;20091;-66
2022/03/01 11:33:01;;;;;;;5.95;3.30;;;;;;;;;;5053948;28;20052;-66
2022/03/01 11:35:29;;;;;;;7.72;3.05;;;;;;;;;;5053638;28;20076;-65
2022/03/01 11:38:01;;;;;;;5.43;3.58;;;;;;;;;;5053521;28;20485;-65
2022/03/01 11:40:33;;;;;;;6.10;2.97;;;;;;;;;;5053481;28;20055;-66
2022/03/01 11:43:31;;;;;;;4.88;2.97;;;;;;;;;;5053977;28;20045;-66
2022/03/01 11:45:58;;;;;;;5.30;3.03;;;;;;;;;;5053001;28;20053;-66
2022/03/01 11:48:26;;;;;;;5.65;2.63;;;;;;;;;;5053345;28;20529;-65
2022/03/01 11:50:53;;;;;;;;;;;;;;;;;;5053549;28;20572;-66
2022/03/01 11:53:19;;;;;;;8.40;3.33;;;;;;;;;;5053049;28;19925;-66
2022/03/01 11:55:49;;;;;;;4.68;3.00;;;;;;;;;;5053378;28;20044;-66
2022/03/01 11:58:16;;;;;;;3.80;3.35;;;;;;;;;;5053392;28;20107;-65
2022/03/01 12:00:42;;;;;;;6.40;3.55;;;;;;;;;;5053382;28;20074;-66
2022/03/01 12:03:12;;;;;;;6.45;3.70;;;;;;;;;;5053279;28;20045;-65
2022/03/01 12:05:38;;;;;;;4.50;3.20;;;;;;;;;;5044681;28;20103;-66
2022/03/01 12:08:06;;;;;;;4.65;3.08;;;;;;;;;;5037813;28;20570;-66
2022/03/01 12:11:10;;;;;;;5.07;4.32;;;;;;;;;;5053227;28;20106;-65
2022/03/01 12:13:46;;;;;;;5.88;4.55;;;;;;;;;;5052582;28;20080;-66
2022/03/01 12:16:14;;;;;;;6.57;4.28;;;;;;;;;;5052674;28;20049;-66
2022/03/01 12:18:41;;;;;;;5.32;4.10;;;;;;;;;;5051508;28;20132;-66
2022/03/01 12:21:09;;;;;;;7.07;4.13;;;;;;;;;;5052741;28;20053;-65
2022/03/01 12:23:38;;;;;;;4.90;3.92;;;;;;;;;;5052930;28;20040;-66
2022/03/01 12:26:05;;;;;;;5.43;3.78;;;;;;;;;;5052603;28;20053;-66
2022/03/01 12:28:43;;;;;;;5.63;4.25;;;;;;;;;;5052455;28;20150;-66
2022/03/01 12:31:18;;;;;;;7.32;4.28;;;;;;;;;;5052543;28;20465;-66
2022/03/01 12:33:51;;;;;;;5.88;3.92;;;;;;;;;;5052491;28;20091;-66
2022/03/01 12:36:24;;;;;;;6.78;4.30;;;;;;;;;;5052635;28;20111;-66
2022/03/01 12:38:52;;;;;;;5.35;4.18;;;;;;;;;;5052253;28;20048;-66
2022/03/01 12:41:21;;;;;;;6.13;4.82;;;;;;;;;;5052259;28;20151;-66
2022/03/01 12:43:52;;;;;;;7.30;5.43;;;;;;;;;;5046041;28;20517;-66
2022/03/01 12:46:19;;;;;;;9.02;5.10;;;;;;;;;;5034020;28;20049;-66
2022/03/01 12:48:47;;;;;;;6.50;4.40;;;;;;;;;;5051279;28;20052;-66
2022/03/01 12:51:14;;;;;;;7.50;5.10;;;;;;;;;;5037128;28;20050;-66
2022/03/01 12:53:51;;;;;;;6.70;4.43;;;;;;;;;;5030869;28;20464;-66
2022/03/01 12:56:22;;;;;;;8.10;5.50;;;;;;;;;;5031198;28;20482;-66
2022/03/01 12:58:49;;;;;;;5.85;4.80;;;;;;;;;;5032288;28;20460;-65
2022/03/01 13:01:16;;;;;;;7.33;4.90;;;;;;;;;;5040165;28;20045;-65
2022/03/01 13:03:44;;;;;;;6.35;5.60;;;;;;;;;;5038172;28;20297;-65
2022/03/01 13:06:12;;;;;;;7.93;4.95;;;;;;;;;;5031730;28;20052;-66
2022/03/01 13:08:40;;;;;;;6.65;5.55;;;;;;;;;;5036601;28;20157;-66
2022/03/01 13:11:08;;;;;;;7.63;5.45;;;;;;;;;;5032541;28;20402;-66
2022/03/01 13:13:45;;;;;;;6.75;5.50;;;;;;;;;;5046090;28;20091;-65
2022/03/01 13:16:22;;;;;;;6.68;5.88;;;;;;;;;;5045824;28;20049;-66
2022/03/01 13:18:50;;;;;;;5.40;4.82;;;;;;;;;;5048935;28;20041;-66
2022/03/01 13:21:24;;;;;;;5.88;5.20;;;;;;;;;;5034797;28;20099;-66
2022/03/01 13:23:52;;;;;;;8.45;6.57;;;;;;;;;;5032143;28;20100;-66
2022/03/01 13:26:19;;;;;;;7.10;5.95;;;;;;;;;;5051680;28;20102;-66
2022/03/01 13:28:45;;;;;;;8.77;6.70;;;;;;;;;;5051364;28;20049;-66
2022/03/01 13:31:19;;;;;;;6.93;5.40;;;;;;;;;;5033653;28;20050;-66
2022/03/01 13:33:50;;;;;;;6.40;5.80;;;;;;;;;;5038720;28;20436;-66
2022/03/01 13:36:17;;;;;;;7.38;6.28;;;;;;;;;;5051028;28;20492;-66
2022/03/01 13:38:43;;;;;;;9.45;6.93;;;;;;;;;;5049189;28;20102;-66
2022/03/01 13:41:10;;;;;;;9.45;6.97;;;;;;;;;;5040429;28;20095;-65
2022/03/01 13:43:37;;;;;;;7.70;6.18;;;;;;;;;;5046169;28;20534;-66
2022/03/01 13:46:04;;;;;;;9.30;7.25;;;;;;;;;;5051141;28;20060;-66
2022/03/01 13:48:31;;;;;;;8.07;6.68;;;;;;;;;;5050917;28;20047;-66
2022/03/01 13:51:06;;;;;;;7.83;6.77;;;;;;;;;;5050945;28;20088;-66
2022/03/01 13:53:34;;;;;;;7.97;6.30;;;;;;;;;;5050980;28;20044;-65
2022/03/01 13:56:01;;;;;;;8.77;6.70;;;;;;;;;;5045841;28;20038;-66
2022/03/01 13:58:28;;;;;;;7.68;6.63;;;;;;;;;;5030648;28;20096;-66
2022/03/01 14:00:56;;;;;;;8.15;6.53;;;;;;;;;;5030713;28;20042;-66
2022/03/01 14:03:22;;;;;;;;;;;;;;;;;;5046433;28;20128;-65
2022/03/01 14:06:02;;;;;;;8.13;6.03;;;;;;;;;;5049714;28;19920;-66
2022/03/01 14:08:30;;;;;;;8.18;6.82;;;;;;;;;;5050520;28;20056;-66
2022/03/01 14:10:56;;;;;;;11.32;7.32;;;;;;;;;;5050895;28;20111;-65
2022/03/01 14:13:25;;;;;;;10.93;6.72;;;;;;;;;;5046758;28;20486;-66
2022/03/01 14:15:53;;;;;;;8.10;6.68;;;;;;;;;;5030244;28;20046;-66
2022/03/01 14:18:20;;;;;;;8.70;6.80;;;;;;;;;;5030180;28;20520;-66
2022/03/01 14:20:49;;;;;;;9.67;7.50;;;;;;;;;;5030161;28;20041;-66
2022/03/01 14:23:17;;;;;;;9.75;7.32;;;;;;;;;;5030488;28;20099;-65
2022/03/01 14:25:43;;;;;;;9.63;7.20;;;;;;;;;;5050466;28;20045;-66
2022/03/01 14:28:09;;;;;;;12.38;7.97;;;;;;;;;;5036737;28;20103;-66
2022/03/01 14:30:37;;;;;;;9.55;7.40;;;;;;;;;;5049176;28;20081;-66
2022/03/01 14:33:03;;;;;;;11.13;7.95;;;;;;;;;;5042800;28;20049;-66
2022/03/01 14:35:30;;;;;;;10.32;8.23;;;;;;;;;;5033643;28;20049;-66
2022/03/01 14:37:57;;;;;;;10.50;7.70;;;;;;;;;;5038417;28;20451;-66
2022/03/01 14:40:23;;;;;;;12.00;7.43;;;;;;;;;;5042971;28;20497;-66